sensor_id;sensor_type;location;lat;lon;timestamp;pressure;altitude;pressure_sealevel;temperature;humidity
9439;BME280;5176;42.622;25.386;2023-02-18T00:01:01;97861.69;;;5.40;55.96
9439;BME280;5176;42.622;25.386;2023-02-18T00:03:29;97850.03;;;5.25;55.92
9439;BME280;5176;42.622;25.386;2023-02-18T00:05:56;97848.69;;;5.13;56.79
9439;BME280;5176;42.622;25.386;2023-02-18T00:08:25;97865.09;;;5.15;57.01
9439;BME280;5176;42.622;25.386;2023-02-18T00:10:54;97856.03;;;5.01;57.32
9439;BME280;5176;42.622;25.386;2023-02-18T00:13:21;97851.28;;;5.13;57.78
9439;BME280;5176;42.622;25.386;2023-02-18T00:15:48;97840.41;;;5.02;57.85
9439;BME280;5176;42.622;25.386;2023-02-18T00:18:15;97838.47;;;4.81;58.41
9439;BME280;5176;42.622;25.386;2023-02-18T00:20:44;97852.97;;;4.88;58.83
9439;BME280;5176;42.622;25.386;2023-02-18T00:23:11;97811.81;;;4.76;58.88
9439;BME280;5176;42.622;25.386;2023-02-18T00:25:38;97833.06;;;4.88;59.30
9439;BME280;5176;42.622;25.386;2023-02-18T00:28:07;97838.03;;;4.95;58.91
9439;BME280;5176;42.622;25.386;2023-02-18T00:30:38;97824.19;;;4.94;58.71
9439;BME280;5176;42.622;25.386;2023-02-18T00:33:06;97823.66;;;4.84;59.10
9439;BME280;5176;42.622;25.386;2023-02-18T00:35:34;97831.09;;;4.67;59.52
9439;BME280;5176;42.622;25.386;2023-02-18T00:38:02;97826.44;;;4.78;60.02
9439;BME280;5176;42.622;25.386;2023-02-18T00:40:30;97826.75;;;4.68;60.50
9439;BME280;5176;42.622;25.386;2023-02-18T00:42:57;97824.50;;;4.57;61.06
9439;BME280;5176;42.622;25.386;2023-02-18T00:45:27;97796.06;;;4.24;61.51
9439;BME280;5176;42.622;25.386;2023-02-18T00:47:54;97790.56;;;4.35;61.55
9439;BME280;5176;42.622;25.386;2023-02-18T00:50:22;97814.38;;;4.48;61.88
9439;BME280;5176;42.622;25.386;2023-02-18T00:52:52;97816.72;;;4.57;61.77
9439;BME280;5176;42.622;25.386;2023-02-18T00:55:19;97804.47;;;4.60;61.88
9439;BME280;5176;42.622;25.386;2023-02-18T00:57:47;97777.97;;;4.51;61.45
9439;BME280;5176;42.622;25.386;2023-02-18T01:00:16;97803.25;;;4.72;61.01
9439;BME280;5176;42.622;25.386;2023-02-18T01:02:46;97796.25;;;4.74;60.83
9439;BME280;5176;42.622;25.386;2023-02-18T01:05:13;97777.53;;;4.64;60.60
9439;BME280;5176;42.622;25.386;2023-02-18T01:07:40;97804.03;;;4.74;60.37
9439;BME280;5176;42.622;25.386;2023-02-18T01:10:08;97796.31;;;4.73;60.31
9439;BME280;5176;42.622;25.386;2023-02-18T01:12:35;97792.06;;;4.70;60.46
9439;BME280;5176;42.622;25.386;2023-02-18T01:15:03;97757.13;;;4.52;60.48
9439;BME280;5176;42.622;25.386;2023-02-18T01:17:32;97780.59;;;4.77;60.04
9439;BME280;5176;42.622;25.386;2023-02-18T01:20:00;97793.56;;;4.77;60.45
9439;BME280;5176;42.622;25.386;2023-02-18T01:22:28;97777.97;;;4.77;60.15
9439;BME280;5176;42.622;25.386;2023-02-18T01:24:55;97776.19;;;4.79;60.70
9439;BME280;5176;42.622;25.386;2023-02-18T01:27:22;97775.34;;;4.79;60.28
9439;BME280;5176;42.622;25.386;2023-02-18T01:29:50;97777.19;;;4.75;60.70
9439;BME280;5176;42.622;25.386;2023-02-18T01:32:17;97765.94;;;4.75;60.18
9439;BME280;5176;42.622;25.386;2023-02-18T01:34:44;97766.16;;;4.69;60.67
9439;BME280;5176;42.622;25.386;2023-02-18T01:37:13;97760.06;;;4.70;60.83
9439;BME280;5176;42.622;25.386;2023-02-18T01:39:41;97761.81;;;4.69;60.75
9439;BME280;5176;42.622;25.386;2023-02-18T01:42:17;97760.38;;;4.59;61.53
9439;BME280;5176;42.622;25.386;2023-02-18T01:44:45;97756.03;;;4.59;61.11
9439;BME280;5176;42.622;25.386;2023-02-18T01:47:13;97755.31;;;4.56;61.59
9439;BME280;5176;42.622;25.386;2023-02-18T01:49:41;97757.97;;;4.53;61.23
9439;BME280;5176;42.622;25.386;2023-02-18T01:52:13;97756.94;;;4.58;60.91
9439;BME280;5176;42.622;25.386;2023-02-18T01:54:43;97735.81;;;4.43;60.77
9439;BME280;5176;42.622;25.386;2023-02-18T01:57:14;97755.44;;;4.51;61.04
9439;BME280;5176;42.622;25.386;2023-02-18T01:59:45;97739.63;;;4.31;61.40
9439;BME280;5176;42.622;25.386;2023-02-18T02:02:18;97766.56;;;4.27;61.83
9439;BME280;5176;42.622;25.386;2023-02-18T02:04:46;97761.84;;;4.12;62.36
9439;BME280;5176;42.622;25.386;2023-02-18T02:07:18;97762.06;;;4.04;63.63
9439;BME280;5176;42.622;25.386;2023-02-18T02:09:47;97722.28;;;3.75;63.87
9439;BME280;5176;42.622;25.386;2023-02-18T02:12:34;97749.31;;;3.96;64.27
9439;BME280;5176;42.622;25.386;2023-02-18T02:15:20;97717.97;;;3.74;64.19
9439;BME280;5176;42.622;25.386;2023-02-18T02:18:03;97747.81;;;3.89;64.62
9439;BME280;5176;42.622;25.386;2023-02-18T02:21:10;97758.34;;;3.83;64.70
9439;BME280;5176;42.622;25.386;2023-02-18T02:27:07;97755.00;;;3.79;64.85
9439;BME280;5176;42.622;25.386;2023-02-18T02:30:11;97727.19;;;3.53;65.57
9439;BME280;5176;42.622;25.386;2023-02-18T02:33:12;97752.00;;;3.64;65.67
9439;BME280;5176;42.622;25.386;2023-02-18T02:35:53;97757.06;;;3.67;65.80
9439;BME280;5176;42.622;25.386;2023-02-18T02:38:28;97753.59;;;3.68;65.68
9439;BME280;5176;42.622;25.386;2023-02-18T02:41:05;97738.84;;;3.70;65.17
9439;BME280;5176;42.622;25.386;2023-02-18T02:43:42;97733.06;;;3.60;65.15
9439;BME280;5176;42.622;25.386;2023-02-18T02:46:18;97742.19;;;3.73;65.54
9439;BME280;5176;42.622;25.386;2023-02-18T02:48:51;97741.44;;;3.70;65.43
9439;BME280;5176;42.622;25.386;2023-02-18T02:51:27;97747.22;;;3.79;65.56
9439;BME280;5176;42.622;25.386;2023-02-18T02:54:09;97736.72;;;3.84;65.28
9439;BME280;5176;42.622;25.386;2023-02-18T02:56:37;97725.53;;;3.82;64.91
9439;BME280;5176;42.622;25.386;2023-02-18T02:59:09;97740.94;;;3.88;65.01
9439;BME280;5176;42.622;25.386;2023-02-18T03:01:44;97745.41;;;3.83;64.77
9439;BME280;5176;42.622;25.386;2023-02-18T03:04:30;97736.88;;;3.78;65.31
9439;BME280;5176;42.622;25.386;2023-02-18T03:07:19;97738.03;;;3.68;65.34
9439;BME280;5176;42.622;25.386;2023-02-18T03:10:01;97745.91;;;3.65;65.74
9439;BME280;5176;42.622;25.386;2023-02-18T03:12:35;97738.41;;;3.54;66.36
9439;BME280;5176;42.622;25.386;2023-02-18T03:15:12;97739.91;;;3.32;67.20
9439;BME280;5176;42.622;25.386;2023-02-18T03:17:48;97729.59;;;3.30;67.53
9439;BME280;5176;42.622;25.386;2023-02-18T03:20:21;97736.50;;;3.30;67.87
9439;BME280;5176;42.622;25.386;2023-02-18T03:22:53;97702.63;;;3.05;67.63
9439;BME280;5176;42.622;25.386;2023-02-18T03:25:22;97721.94;;;3.25;67.60
9439;BME280;5176;42.622;25.386;2023-02-18T03:27:52;97726.94;;;3.32;67.68
9439;BME280;5176;42.622;25.386;2023-02-18T03:30:23;97742.28;;;3.39;67.64
9439;BME280;5176;42.622;25.386;2023-02-18T03:32:55;97750.53;;;3.22;67.47
9439;BME280;5176;42.622;25.386;2023-02-18T03:35:23;97747.84;;;3.25;67.85
9439;BME280;5176;42.622;25.386;2023-02-18T03:37:56;97748.63;;;3.27;67.81
9439;BME280;5176;42.622;25.386;2023-02-18T03:40:26;97751.06;;;3.34;68.16
9439;BME280;5176;42.622;25.386;2023-02-18T03:42:53;97747.41;;;3.42;67.48
9439;BME280;5176;42.622;25.386;2023-02-18T03:45:22;97757.19;;;3.31;67.74
9439;BME280;5176;42.622;25.386;2023-02-18T03:47:49;97756.41;;;3.27;67.82
9439;BME280;5176;42.622;25.386;2023-02-18T03:50:17;97746.16;;;3.24;68.30
9439;BME280;5176;42.622;25.386;2023-02-18T03:52:44;97764.19;;;3.27;68.42
9439;BME280;5176;42.622;25.386;2023-02-18T03:55:13;97753.38;;;3.12;68.76
9439;BME280;5176;42.622;25.386;2023-02-18T03:57:40;97758.66;;;3.07;69.51
9439;BME280;5176;42.622;25.386;2023-02-18T04:00:09;97756.63;;;3.20;69.18
9439;BME280;5176;42.622;25.386;2023-02-18T04:02:37;97761.84;;;3.18;69.48
9439;BME280;5176;42.622;25.386;2023-02-18T04:05:05;97702.34;;;2.83;68.54
9439;BME280;5176;42.622;25.386;2023-02-18T04:07:32;97720.75;;;3.05;68.07
9439;BME280;5176;42.622;25.386;2023-02-18T04:10:00;97753.81;;;3.27;68.03
9439;BME280;5176;42.622;25.386;2023-02-18T04:12:29;97743.06;;;3.43;67.41
9439;BME280;5176;42.622;25.386;2023-02-18T04:14:56;97736.81;;;3.50;67.10
9439;BME280;5176;42.622;25.386;2023-02-18T04:17:23;97747.81;;;3.58;66.73
9439;BME280;5176;42.622;25.386;2023-02-18T04:19:51;97742.59;;;3.60;66.45
9439;BME280;5176;42.622;25.386;2023-02-18T04:22:20;97747.13;;;3.51;66.97
9439;BME280;5176;42.622;25.386;2023-02-18T04:24:48;97746.28;;;3.51;67.41
9439;BME280;5176;42.622;25.386;2023-02-18T04:27:15;97748.72;;;3.57;67.21
9439;BME280;5176;42.622;25.386;2023-02-18T04:29:44;97724.50;;;3.58;67.06
9439;BME280;5176;42.622;25.386;2023-02-18T04:32:11;97725.59;;;3.49;66.18
9439;BME280;5176;42.622;25.386;2023-02-18T04:34:39;97709.66;;;3.32;67.77
9439;BME280;5176;42.622;25.386;2023-02-18T04:37:07;97661.56;;;2.91;67.68
9439;BME280;5176;42.622;25.386;2023-02-18T04:39:34;97712.41;;;3.26;68.13
9439;BME280;5176;42.622;25.386;2023-02-18T04:42:01;97708.06;;;3.28;68.79
9439;BME280;5176;42.622;25.386;2023-02-18T04:44:33;97719.59;;;3.16;69.07
9439;BME280;5176;42.622;25.386;2023-02-18T04:47:03;97706.19;;;2.68;70.82
9439;BME280;5176;42.622;25.386;2023-02-18T04:49:32;97725.81;;;2.77;71.80
9439;BME280;5176;42.622;25.386;2023-02-18T04:51:59;97695.63;;;2.76;71.63
9439;BME280;5176;42.622;25.386;2023-02-18T04:54:26;97717.28;;;2.71;71.69
9439;BME280;5176;42.622;25.386;2023-02-18T04:56:54;97709.88;;;2.92;71.74
9439;BME280;5176;42.622;25.386;2023-02-18T04:59:21;97704.47;;;2.99;71.33
9439;BME280;5176;42.622;25.386;2023-02-18T05:01:48;97668.00;;;2.76;70.61
9439;BME280;5176;42.622;25.386;2023-02-18T05:04:17;97707.47;;;2.84;71.74
9439;BME280;5176;42.622;25.386;2023-02-18T05:06:44;97721.91;;;2.94;71.65
9439;BME280;5176;42.622;25.386;2023-02-18T05:09:11;97716.09;;;2.85;72.63
9439;BME280;5176;42.622;25.386;2023-02-18T05:11:40;97721.78;;;2.65;75.28
9439;BME280;5176;42.622;25.386;2023-02-18T05:14:10;97722.47;;;2.71;75.15
9439;BME280;5176;42.622;25.386;2023-02-18T05:16:38;97723.38;;;2.70;76.33
9439;BME280;5176;42.622;25.386;2023-02-18T05:19:06;97673.28;;;2.37;76.82
9439;BME280;5176;42.622;25.386;2023-02-18T05:21:35;97723.13;;;2.80;76.19
9439;BME280;5176;42.622;25.386;2023-02-18T05:24:04;97681.09;;;2.70;76.04
9439;BME280;5176;42.622;25.386;2023-02-18T05:26:31;97718.31;;;2.98;75.63
9439;BME280;5176;42.622;25.386;2023-02-18T05:28:58;97669.81;;;2.72;74.75
9439;BME280;5176;42.622;25.386;2023-02-18T05:31:25;97733.13;;;3.26;74.28
9439;BME280;5176;42.622;25.386;2023-02-18T05:33:52;97730.22;;;3.38;73.07
9439;BME280;5176;42.622;25.386;2023-02-18T05:36:20;97730.78;;;3.49;72.62
9439;BME280;5176;42.622;25.386;2023-02-18T05:38:48;97737.38;;;3.61;72.11
9439;BME280;5176;42.622;25.386;2023-02-18T05:41:16;97701.16;;;3.58;72.05
9439;BME280;5176;42.622;25.386;2023-02-18T05:43:43;97722.97;;;3.80;70.74
9439;BME280;5176;42.622;25.386;2023-02-18T05:46:28;97689.66;;;3.68;70.24
9439;BME280;5176;42.622;25.386;2023-02-18T05:48:56;97711.41;;;3.92;70.30
9439;BME280;5176;42.622;25.386;2023-02-18T05:51:23;97704.22;;;4.00;69.54
9439;BME280;5176;42.622;25.386;2023-02-18T05:53:52;97735.81;;;4.15;69.43
9439;BME280;5176;42.622;25.386;2023-02-18T05:56:20;97697.56;;;3.92;68.60
9439;BME280;5176;42.622;25.386;2023-02-18T05:58:47;97727.88;;;4.19;69.29
9439;BME280;5176;42.622;25.386;2023-02-18T06:01:15;97719.81;;;4.28;69.65
9439;BME280;5176;42.622;25.386;2023-02-18T06:03:42;97722.38;;;4.30;69.34
9439;BME280;5176;42.622;25.386;2023-02-18T06:06:10;97706.75;;;4.31;69.08
9439;BME280;5176;42.622;25.386;2023-02-18T06:08:37;97687.91;;;4.25;68.92
9439;BME280;5176;42.622;25.386;2023-02-18T06:11:05;97669.94;;;4.19;68.79
9439;BME280;5176;42.622;25.386;2023-02-18T06:13:33;97699.41;;;4.44;68.62
9439;BME280;5176;42.622;25.386;2023-02-18T06:16:00;97622.34;;;3.92;68.57
9439;BME280;5176;42.622;25.386;2023-02-18T06:18:28;97707.78;;;4.52;68.57
9439;BME280;5176;42.622;25.386;2023-02-18T06:20:55;97699.16;;;4.52;69.34
9439;BME280;5176;42.622;25.386;2023-02-18T06:23:22;97687.94;;;4.51;68.90
9439;BME280;5176;42.622;25.386;2023-02-18T06:25:49;97699.94;;;4.55;68.17
9439;BME280;5176;42.622;25.386;2023-02-18T06:28:19;97689.88;;;4.45;68.70
9439;BME280;5176;42.622;25.386;2023-02-18T06:30:46;97708.41;;;4.60;69.58
9439;BME280;5176;42.622;25.386;2023-02-18T06:33:14;97699.50;;;4.68;68.40
9439;BME280;5176;42.622;25.386;2023-02-18T06:35:41;97687.41;;;4.68;68.72
9439;BME280;5176;42.622;25.386;2023-02-18T06:38:08;97683.22;;;4.89;68.55
9439;BME280;5176;42.622;25.386;2023-02-18T06:40:35;97694.97;;;4.99;67.24
9439;BME280;5176;42.622;25.386;2023-02-18T06:43:03;97695.63;;;5.06;66.84
9439;BME280;5176;42.622;25.386;2023-02-18T06:45:31;97690.13;;;5.15;66.59
9439;BME280;5176;42.622;25.386;2023-02-18T06:47:58;97713.06;;;5.27;66.13
9439;BME280;5176;42.622;25.386;2023-02-18T06:50:26;97702.50;;;5.32;65.47
9439;BME280;5176;42.622;25.386;2023-02-18T06:52:53;97699.69;;;5.38;65.06
9439;BME280;5176;42.622;25.386;2023-02-18T06:55:21;97696.75;;;5.47;64.54
9439;BME280;5176;42.622;25.386;2023-02-18T06:57:48;97688.75;;;5.53;64.82
9439;BME280;5176;42.622;25.386;2023-02-18T07:00:16;97704.13;;;5.59;63.96
9439;BME280;5176;42.622;25.386;2023-02-18T07:02:45;97690.72;;;5.70;62.93
9439;BME280;5176;42.622;25.386;2023-02-18T07:05:12;97694.81;;;5.77;62.71
9439;BME280;5176;42.622;25.386;2023-02-18T07:07:39;97696.91;;;5.91;63.12
9439;BME280;5176;42.622;25.386;2023-02-18T07:10:07;97694.19;;;5.94;62.56
9439;BME280;5176;42.622;25.386;2023-02-18T07:12:35;97694.63;;;6.05;63.35
9439;BME280;5176;42.622;25.386;2023-02-18T07:15:02;97690.88;;;6.12;62.21
9439;BME280;5176;42.622;25.386;2023-02-18T07:17:29;97658.19;;;6.05;62.29
9439;BME280;5176;42.622;25.386;2023-02-18T07:19:58;97677.94;;;6.33;61.89
9439;BME280;5176;42.622;25.386;2023-02-18T07:22:25;97684.28;;;6.47;62.09
9439;BME280;5176;42.622;25.386;2023-02-18T07:24:53;97689.16;;;6.55;61.25
9439;BME280;5176;42.622;25.386;2023-02-18T07:27:21;97654.69;;;6.50;62.36
9439;BME280;5176;42.622;25.386;2023-02-18T07:29:48;97670.56;;;6.64;61.73
9439;BME280;5176;42.622;25.386;2023-02-18T07:32:16;97672.19;;;6.67;62.13
9439;BME280;5176;42.622;25.386;2023-02-18T07:34:44;97636.69;;;6.44;62.64
9439;BME280;5176;42.622;25.386;2023-02-18T07:37:13;97660.34;;;6.80;63.11
9439;BME280;5176;42.622;25.386;2023-02-18T07:39:41;97661.19;;;6.80;62.79
9439;BME280;5176;42.622;25.386;2023-02-18T07:42:09;97670.78;;;7.00;63.80
9439;BME280;5176;42.622;25.386;2023-02-18T07:44:37;97671.00;;;7.16;63.81
9439;BME280;5176;42.622;25.386;2023-02-18T07:47:05;97674.22;;;7.21;62.55
9439;BME280;5176;42.622;25.386;2023-02-18T07:49:34;97668.91;;;7.24;63.06
9439;BME280;5176;42.622;25.386;2023-02-18T07:52:01;97663.56;;;7.46;62.48
9439;BME280;5176;42.622;25.386;2023-02-18T07:54:29;97647.34;;;7.40;60.96
9439;BME280;5176;42.622;25.386;2023-02-18T07:56:57;97671.63;;;7.60;61.87
9439;BME280;5176;42.622;25.386;2023-02-18T07:59:24;97664.38;;;7.67;60.45
9439;BME280;5176;42.622;25.386;2023-02-18T08:01:51;97638.84;;;7.74;60.18
9439;BME280;5176;42.622;25.386;2023-02-18T08:04:18;97649.19;;;7.94;59.56
9439;BME280;5176;42.622;25.386;2023-02-18T08:06:47;97662.69;;;8.04;58.29
9439;BME280;5176;42.622;25.386;2023-02-18T08:09:15;97651.53;;;8.00;59.46
9439;BME280;5176;42.622;25.386;2023-02-18T08:11:44;97627.41;;;7.95;58.48
9439;BME280;5176;42.622;25.386;2023-02-18T08:14:11;97640.13;;;8.20;57.24
9439;BME280;5176;42.622;25.386;2023-02-18T08:16:39;97659.44;;;8.35;57.18
9439;BME280;5176;42.622;25.386;2023-02-18T08:19:06;97646.38;;;8.35;58.27
9439;BME280;5176;42.622;25.386;2023-02-18T08:21:33;97643.59;;;8.39;57.46
9439;BME280;5176;42.622;25.386;2023-02-18T08:24:01;97643.94;;;8.51;57.15
9439;BME280;5176;42.622;25.386;2023-02-18T08:26:28;97643.25;;;8.64;56.63
9439;BME280;5176;42.622;25.386;2023-02-18T08:28:56;97651.63;;;8.71;56.21
9439;BME280;5176;42.622;25.386;2023-02-18T08:31:28;97647.69;;;8.80;56.13
9439;BME280;5176;42.622;25.386;2023-02-18T08:33:57;97649.47;;;8.96;56.24
9439;BME280;5176;42.622;25.386;2023-02-18T08:36:26;97624.53;;;8.89;56.43
9439;BME280;5176;42.622;25.386;2023-02-18T08:38:53;97602.91;;;8.70;57.06
9439;BME280;5176;42.622;25.386;2023-02-18T08:41:26;97644.91;;;9.17;56.57
9439;BME280;5176;42.622;25.386;2023-02-18T08:43:53;97604.94;;;8.98;54.49
9439;BME280;5176;42.622;25.386;2023-02-18T08:46:22;97641.16;;;9.39;54.35
9439;BME280;5176;42.622;25.386;2023-02-18T08:48:49;97584.81;;;9.16;53.84
9439;BME280;5176;42.622;25.386;2023-02-18T08:51:18;97630.59;;;9.73;55.00
9439;BME280;5176;42.622;25.386;2023-02-18T08:53:46;97623.09;;;9.99;54.54
9439;BME280;5176;42.622;25.386;2023-02-18T08:56:14;97596.22;;;9.95;53.56
9439;BME280;5176;42.622;25.386;2023-02-18T08:58:44;97635.88;;;10.36;53.69
9439;BME280;5176;42.622;25.386;2023-02-18T09:01:15;97634.88;;;10.53;53.09
9439;BME280;5176;42.622;25.386;2023-02-18T09:03:45;97621.59;;;10.56;50.91
9439;BME280;5176;42.622;25.386;2023-02-18T09:06:13;97630.44;;;10.70;50.92
9439;BME280;5176;42.622;25.386;2023-02-18T09:08:41;97626.94;;;10.85;49.05
9439;BME280;5176;42.622;25.386;2023-02-18T09:11:10;97625.53;;;10.94;50.00
9439;BME280;5176;42.622;25.386;2023-02-18T09:13:38;97619.00;;;11.01;49.30
9439;BME280;5176;42.622;25.386;2023-02-18T09:16:09;97606.84;;;11.14;48.96
9439;BME280;5176;42.622;25.386;2023-02-18T09:18:39;97605.72;;;11.32;49.10
9439;BME280;5176;42.622;25.386;2023-02-18T09:21:08;97582.56;;;11.53;50.11
9439;BME280;5176;42.622;25.386;2023-02-18T09:23:44;97589.94;;;11.89;49.11
9439;BME280;5176;42.622;25.386;2023-02-18T09:26:14;97592.53;;;12.04;46.31
9439;BME280;5176;42.622;25.386;2023-02-18T09:28:47;97586.31;;;12.19;46.06
9439;BME280;5176;42.622;25.386;2023-02-18T09:31:31;97572.38;;;12.31;43.87
9439;BME280;5176;42.622;25.386;2023-02-18T09:34:19;97572.19;;;12.47;44.33
9439;BME280;5176;42.622;25.386;2023-02-18T09:36:51;97578.75;;;12.67;44.46
9439;BME280;5176;42.622;25.386;2023-02-18T09:39:21;97578.34;;;12.73;43.55
9439;BME280;5176;42.622;25.386;2023-02-18T09:41:49;97574.38;;;12.80;43.18
9439;BME280;5176;42.622;25.386;2023-02-18T09:44:21;97568.81;;;12.85;43.12
9439;BME280;5176;42.622;25.386;2023-02-18T09:46:54;97570.69;;;12.95;44.15
9439;BME280;5176;42.622;25.386;2023-02-18T09:49:26;97560.38;;;12.92;43.93
9439;BME280;5176;42.622;25.386;2023-02-18T09:52:02;97575.94;;;13.08;43.60
9439;BME280;5176;42.622;25.386;2023-02-18T09:54:31;97552.91;;;13.12;43.16
9439;BME280;5176;42.622;25.386;2023-02-18T09:57:03;97564.38;;;13.36;43.50
9439;BME280;5176;42.622;25.386;2023-02-18T09:59:36;97563.09;;;13.54;42.37
9439;BME280;5176;42.622;25.386;2023-02-18T10:02:09;97569.00;;;13.95;41.89
9439;BME280;5176;42.622;25.386;2023-02-18T10:04:46;97570.81;;;14.18;41.52
9439;BME280;5176;42.622;25.386;2023-02-18T10:07:22;97560.31;;;14.29;41.05
9439;BME280;5176;42.622;25.386;2023-02-18T10:09:54;97550.59;;;14.30;40.96
9439;BME280;5176;42.622;25.386;2023-02-18T10:12:25;97479.78;;;14.01;40.71
9439;BME280;5176;42.622;25.386;2023-02-18T10:14:55;97554.13;;;14.41;41.31
9439;BME280;5176;42.622;25.386;2023-02-18T10:17:26;97553.72;;;14.48;41.62
9439;BME280;5176;42.622;25.386;2023-02-18T10:19:59;97562.97;;;14.53;40.94
9439;BME280;5176;42.622;25.386;2023-02-18T10:22:31;97560.13;;;14.67;40.66
9439;BME280;5176;42.622;25.386;2023-02-18T10:25:05;97559.94;;;14.82;40.68
9439;BME280;5176;42.622;25.386;2023-02-18T10:27:39;97555.75;;;14.90;40.89
9439;BME280;5176;42.622;25.386;2023-02-18T10:30:20;97559.72;;;14.96;40.71
9439;BME280;5176;42.622;25.386;2023-02-18T10:32:51;97557.31;;;15.04;40.68
9439;BME280;5176;42.622;25.386;2023-02-18T10:35:24;97515.69;;;14.96;40.26
9439;BME280;5176;42.622;25.386;2023-02-18T10:38:14;97547.78;;;15.25;40.21
9439;BME280;5176;42.622;25.386;2023-02-18T10:40:57;97543.94;;;15.41;39.97
9439;BME280;5176;42.622;25.386;2023-02-18T10:43:35;97535.16;;;15.51;40.10
9439;BME280;5176;42.622;25.386;2023-02-18T10:46:10;97536.72;;;15.54;40.14
9439;BME280;5176;42.622;25.386;2023-02-18T10:48:59;97529.75;;;15.64;40.07
9439;BME280;5176;42.622;25.386;2023-02-18T10:51:34;97523.41;;;15.67;39.61
9439;BME280;5176;42.622;25.386;2023-02-18T10:54:13;97516.66;;;15.74;39.22
9439;BME280;5176;42.622;25.386;2023-02-18T10:56:48;97518.69;;;15.82;39.27
9439;BME280;5176;42.622;25.386;2023-02-18T10:59:19;97517.09;;;15.90;38.88
9439;BME280;5176;42.622;25.386;2023-02-18T11:01:53;97519.84;;;16.00;38.66
9439;BME280;5176;42.622;25.386;2023-02-18T11:04:27;97520.13;;;16.18;38.72
9439;BME280;5176;42.622;25.386;2023-02-18T11:06:54;97516.56;;;16.40;38.83
9439;BME280;5176;42.622;25.386;2023-02-18T11:09:29;97518.22;;;16.52;37.72
9439;BME280;5176;42.622;25.386;2023-02-18T11:12:02;97487.66;;;16.48;37.50
9439;BME280;5176;42.622;25.386;2023-02-18T11:14:42;97505.34;;;16.79;37.11
9439;BME280;5176;42.622;25.386;2023-02-18T11:17:21;97505.81;;;16.94;37.36
9439;BME280;5176;42.622;25.386;2023-02-18T11:19:53;97500.47;;;17.05;37.00
9439;BME280;5176;42.622;25.386;2023-02-18T11:22:23;97499.06;;;17.11;37.41
9439;BME280;5176;42.622;25.386;2023-02-18T11:25:18;97484.75;;;17.13;36.96
9439;BME280;5176;42.622;25.386;2023-02-18T11:27:50;97477.09;;;17.20;36.46
9439;BME280;5176;42.622;25.386;2023-02-18T11:30:21;97481.03;;;17.26;35.84
9439;BME280;5176;42.622;25.386;2023-02-18T11:32:53;97475.16;;;17.22;36.21
9439;BME280;5176;42.622;25.386;2023-02-18T11:35:24;97466.91;;;17.25;36.52
9439;BME280;5176;42.622;25.386;2023-02-18T11:37:54;97449.06;;;17.17;36.32
9439;BME280;5176;42.622;25.386;2023-02-18T11:40:27;97442.63;;;17.10;36.21
9439;BME280;5176;42.622;25.386;2023-02-18T11:43:03;97469.75;;;17.33;35.99
9439;BME280;5176;42.622;25.386;2023-02-18T11:45:32;97471.28;;;17.36;36.46
9439;BME280;5176;42.622;25.386;2023-02-18T11:48:01;97460.84;;;17.34;36.12
9439;BME280;5176;42.622;25.386;2023-02-18T11:50:33;97444.88;;;17.25;36.25
9439;BME280;5176;42.622;25.386;2023-02-18T11:53:24;97453.13;;;17.22;36.76
9439;BME280;5176;42.622;25.386;2023-02-18T11:55:57;97458.28;;;17.23;37.19
9439;BME280;5176;42.622;25.386;2023-02-18T11:58:25;97452.69;;;17.16;36.62
9439;BME280;5176;42.622;25.386;2023-02-18T12:00:55;97437.84;;;17.04;36.99
9439;BME280;5176;42.622;25.386;2023-02-18T12:03:29;97452.38;;;17.10;37.56
9439;BME280;5176;42.622;25.386;2023-02-18T12:06:04;97437.53;;;16.98;37.72
9439;BME280;5176;42.622;25.386;2023-02-18T12:08:44;97437.44;;;16.99;37.71
9439;BME280;5176;42.622;25.386;2023-02-18T12:11:23;97448.66;;;16.92;38.08
9439;BME280;5176;42.622;25.386;2023-02-18T12:13:54;97446.00;;;16.92;38.09
9439;BME280;5176;42.622;25.386;2023-02-18T12:16:27;97436.81;;;16.86;38.05
9439;BME280;5176;42.622;25.386;2023-02-18T12:19:17;97436.53;;;16.89;37.93
9439;BME280;5176;42.622;25.386;2023-02-18T12:21:56;97438.72;;;16.84;38.05
9439;BME280;5176;42.622;25.386;2023-02-18T12:24:39;97409.22;;;16.68;38.81
9439;BME280;5176;42.622;25.386;2023-02-18T12:27:17;97440.81;;;16.80;38.23
9439;BME280;5176;42.622;25.386;2023-02-18T12:30:10;97435.78;;;16.77;38.48
9439;BME280;5176;42.622;25.386;2023-02-18T12:32:49;97427.97;;;16.76;37.69
9439;BME280;5176;42.622;25.386;2023-02-18T12:35:38;97433.00;;;16.79;37.59
9439;BME280;5176;42.622;25.386;2023-02-18T12:38:30;97420.47;;;16.81;37.45
9439;BME280;5176;42.622;25.386;2023-02-18T12:41:12;97415.88;;;16.83;37.93
9439;BME280;5176;42.622;25.386;2023-02-18T12:43:52;97417.56;;;16.84;37.54
9439;BME280;5176;42.622;25.386;2023-02-18T12:46:51;97418.69;;;16.91;37.58
9439;BME280;5176;42.622;25.386;2023-02-18T12:49:51;97402.63;;;16.83;38.03
9439;BME280;5176;42.622;25.386;2023-02-18T12:52:34;97416.03;;;16.91;37.76
9439;BME280;5176;42.622;25.386;2023-02-18T12:55:24;97412.75;;;16.99;37.57
9439;BME280;5176;42.622;25.386;2023-02-18T12:57:57;97350.84;;;16.59;36.90
9439;BME280;5176;42.622;25.386;2023-02-18T13:00:59;97413.06;;;17.05;37.17
9439;BME280;5176;42.622;25.386;2023-02-18T13:03:59;97407.47;;;17.08;37.88
9439;BME280;5176;42.622;25.386;2023-02-18T13:06:41;97418.22;;;17.07;37.17
9439;BME280;5176;42.622;25.386;2023-02-18T13:09:22;97410.00;;;17.10;37.76
9439;BME280;5176;42.622;25.386;2023-02-18T13:11:58;97401.66;;;17.14;37.15
9439;BME280;5176;42.622;25.386;2023-02-18T13:14:31;97379.03;;;17.01;37.15
9439;BME280;5176;42.622;25.386;2023-02-18T13:17:05;97397.19;;;17.15;37.80
9439;BME280;5176;42.622;25.386;2023-02-18T13:19:42;97401.25;;;17.19;38.36
9439;BME280;5176;42.622;25.386;2023-02-18T13:22:11;97388.81;;;17.10;38.72
9439;BME280;5176;42.622;25.386;2023-02-18T13:24:44;97358.78;;;16.90;38.65
9439;BME280;5176;42.622;25.386;2023-02-18T13:27:16;97412.63;;;17.10;39.08
9439;BME280;5176;42.622;25.386;2023-02-18T13:29:52;97406.38;;;17.11;38.84
9439;BME280;5176;42.622;25.386;2023-02-18T13:32:28;97395.75;;;17.01;38.74
9439;BME280;5176;42.622;25.386;2023-02-18T13:35:04;97406.34;;;17.01;38.95
9439;BME280;5176;42.622;25.386;2023-02-18T13:37:47;97407.19;;;17.02;38.87
9439;BME280;5176;42.622;25.386;2023-02-18T13:40:22;97398.13;;;17.04;38.44
9439;BME280;5176;42.622;25.386;2023-02-18T13:42:53;97404.69;;;17.10;38.90
9439;BME280;5176;42.622;25.386;2023-02-18T13:45:27;97401.19;;;17.00;38.88